sensor_id;sensor_type;location;lat;lon;timestamp;temperature;humidity
26224;DHT22;14820;48.682;8.890;2023-04-30T00:01:57;10.80;99.90
26224;DHT22;14820;48.682;8.890;2023-04-30T00:04:22;10.90;99.90
26224;DHT22;14820;48.682;8.890;2023-04-30T00:06:48;10.90;99.90
26224;DHT22;14820;48.682;8.890;2023-04-30T00:09:14;10.90;99.90
26224;DHT22;14820;48.682;8.890;2023-04-30T00:11:39;10.90;99.90
26224;DHT22;14820;48.682;8.890;2023-04-30T00:14:05;10.90;99.90
26224;DHT22;14820;48.682;8.890;2023-04-30T00:16:31;10.90;99.90
26224;DHT22;14820;48.682;8.890;2023-04-30T00:18:56;10.80;99.90
26224;DHT22;14820;48.682;8.890;2023-04-30T00:21:22;10.80;99.90
26224;DHT22;14820;48.682;8.890;2023-04-30T00:23:48;10.80;99.90
26224;DHT22;14820;48.682;8.890;2023-04-30T00:26:13;10.80;99.90
26224;DHT22;14820;48.682;8.890;2023-04-30T00:28:39;10.80;99.90
26224;DHT22;14820;48.682;8.890;2023-04-30T00:31:05;10.80;99.90
26224;DHT22;14820;48.682;8.890;2023-04-30T00:33:33;10.80;99.90
26224;DHT22;14820;48.682;8.890;2023-04-30T00:35:59;10.80;99.90
26224;DHT22;14820;48.682;8.890;2023-04-30T00:38:25;10.80;99.90
26224;DHT22;14820;48.682;8.890;2023-04-30T00:40:51;10.70;99.90
26224;DHT22;14820;48.682;8.890;2023-04-30T00:43:17;10.70;99.90
26224;DHT22;14820;48.682;8.890;2023-04-30T00:45:43;10.70;99.90
26224;DHT22;14820;48.682;8.890;2023-04-30T00:48:09;10.70;99.90
26224;DHT22;14820;48.682;8.890;2023-04-30T00:50:35;10.70;99.90
26224;DHT22;14820;48.682;8.890;2023-04-30T00:53:01;10.70;99.90
26224;DHT22;14820;48.682;8.890;2023-04-30T00:55:27;10.70;99.90
26224;DHT22;14820;48.682;8.890;2023-04-30T00:57:53;10.70;99.90
26224;DHT22;14820;48.682;8.890;2023-04-30T01:00:19;10.70;99.90
26224;DHT22;14820;48.682;8.890;2023-04-30T01:02:46;10.70;99.90
26224;DHT22;14820;48.682;8.890;2023-04-30T01:05:12;10.70;99.90
26224;DHT22;14820;48.682;8.890;2023-04-30T01:07:38;10.60;99.90
26224;DHT22;14820;48.682;8.890;2023-04-30T01:10:09;10.60;99.90
26224;DHT22;14820;48.682;8.890;2023-04-30T01:15:36;10.60;99.90
26224;DHT22;14820;48.682;8.890;2023-04-30T01:18:20;10.60;99.90
26224;DHT22;14820;48.682;8.890;2023-04-30T01:20:49;10.50;99.90
26224;DHT22;14820;48.682;8.890;2023-04-30T01:26:47;10.60;99.90
26224;DHT22;14820;48.682;8.890;2023-04-30T01:29:18;10.50;99.90
26224;DHT22;14820;48.682;8.890;2023-04-30T01:31:45;10.50;99.90
26224;DHT22;14820;48.682;8.890;2023-04-30T01:34:11;10.50;99.90
26224;DHT22;14820;48.682;8.890;2023-04-30T01:42:19;10.40;99.90
26224;DHT22;14820;48.682;8.890;2023-04-30T01:48:01;10.40;99.90
26224;DHT22;14820;48.682;8.890;2023-04-30T01:50:52;10.40;99.90
26224;DHT22;14820;48.682;8.890;2023-04-30T01:53:23;10.50;99.90
26224;DHT22;14820;48.682;8.890;2023-04-30T01:55:58;10.40;99.90
26224;DHT22;14820;48.682;8.890;2023-04-30T01:58:26;10.40;99.90
26224;DHT22;14820;48.682;8.890;2023-04-30T02:00:52;10.30;99.90
26224;DHT22;14820;48.682;8.890;2023-04-30T02:03:18;10.30;99.90
26224;DHT22;14820;48.682;8.890;2023-04-30T02:05:44;10.30;99.90
26224;DHT22;14820;48.682;8.890;2023-04-30T02:08:09;10.30;99.90
26224;DHT22;14820;48.682;8.890;2023-04-30T02:10:35;10.30;99.90
26224;DHT22;14820;48.682;8.890;2023-04-30T02:13:01;10.30;99.90
26224;DHT22;14820;48.682;8.890;2023-04-30T02:15:26;10.40;99.90
26224;DHT22;14820;48.682;8.890;2023-04-30T02:17:52;10.30;99.90
26224;DHT22;14820;48.682;8.890;2023-04-30T02:20:18;10.30;99.90
26224;DHT22;14820;48.682;8.890;2023-04-30T02:22:43;10.30;99.90
26224;DHT22;14820;48.682;8.890;2023-04-30T02:25:09;10.30;99.90
26224;DHT22;14820;48.682;8.890;2023-04-30T02:27:37;10.30;99.90
26224;DHT22;14820;48.682;8.890;2023-04-30T02:30:03;10.30;99.90
26224;DHT22;14820;48.682;8.890;2023-04-30T02:32:29;10.30;99.90
26224;DHT22;14820;48.682;8.890;2023-04-30T02:34:55;10.20;99.90
26224;DHT22;14820;48.682;8.890;2023-04-30T02:37:21;10.20;99.90
26224;DHT22;14820;48.682;8.890;2023-04-30T02:39:47;10.20;99.90
26224;DHT22;14820;48.682;8.890;2023-04-30T02:42:13;10.20;99.90
26224;DHT22;14820;48.682;8.890;2023-04-30T02:44:39;10.20;99.90
26224;DHT22;14820;48.682;8.890;2023-04-30T02:47:04;10.20;99.90
26224;DHT22;14820;48.682;8.890;2023-04-30T02:49:30;10.20;99.90
26224;DHT22;14820;48.682;8.890;2023-04-30T02:51:56;10.20;99.90
26224;DHT22;14820;48.682;8.890;2023-04-30T02:54:21;10.20;99.90
26224;DHT22;14820;48.682;8.890;2023-04-30T02:56:47;10.10;99.90
26224;DHT22;14820;48.682;8.890;2023-04-30T02:59:12;10.10;99.90
26224;DHT22;14820;48.682;8.890;2023-04-30T03:01:38;10.10;99.90
26224;DHT22;14820;48.682;8.890;2023-04-30T03:04:04;10.10;99.90
26224;DHT22;14820;48.682;8.890;2023-04-30T03:06:30;10.10;99.90
26224;DHT22;14820;48.682;8.890;2023-04-30T03:08:57;10.10;99.90
26224;DHT22;14820;48.682;8.890;2023-04-30T03:11:22;10.10;99.90
26224;DHT22;14820;48.682;8.890;2023-04-30T03:13:48;10.10;99.90
26224;DHT22;14820;48.682;8.890;2023-04-30T03:16:18;10.10;99.90
26224;DHT22;14820;48.682;8.890;2023-04-30T03:18:45;10.10;99.90
26224;DHT22;14820;48.682;8.890;2023-04-30T03:21:10;10.10;99.90
26224;DHT22;14820;48.682;8.890;2023-04-30T03:23:36;10.10;99.90
26224;DHT22;14820;48.682;8.890;2023-04-30T03:26:02;10.10;99.90
26224;DHT22;14820;48.682;8.890;2023-04-30T03:28:27;10.00;99.90
26224;DHT22;14820;48.682;8.890;2023-04-30T03:30:53;10.00;99.90
26224;DHT22;14820;48.682;8.890;2023-04-30T03:33:19;10.00;99.90
26224;DHT22;14820;48.682;8.890;2023-04-30T03:35:44;10.00;99.90
26224;DHT22;14820;48.682;8.890;2023-04-30T03:38:10;10.00;99.90
26224;DHT22;14820;48.682;8.890;2023-04-30T03:40:36;9.90;99.90
26224;DHT22;14820;48.682;8.890;2023-04-30T03:43:01;9.90;99.90
26224;DHT22;14820;48.682;8.890;2023-04-30T03:45:27;9.90;99.90
26224;DHT22;14820;48.682;8.890;2023-04-30T03:47:53;9.90;99.90
26224;DHT22;14820;48.682;8.890;2023-04-30T03:50:18;9.90;99.90
26224;DHT22;14820;48.682;8.890;2023-04-30T03:52:44;9.90;99.90
26224;DHT22;14820;48.682;8.890;2023-04-30T03:55:11;9.90;99.90
26224;DHT22;14820;48.682;8.890;2023-04-30T03:57:37;9.90;99.90
26224;DHT22;14820;48.682;8.890;2023-04-30T04:00:04;9.90;99.90
26224;DHT22;14820;48.682;8.890;2023-04-30T04:02:34;9.90;99.90
26224;DHT22;14820;48.682;8.890;2023-04-30T04:05:01;9.90;99.90
26224;DHT22;14820;48.682;8.890;2023-04-30T04:07:26;9.90;99.90
26224;DHT22;14820;48.682;8.890;2023-04-30T04:09:52;9.90;99.90
26224;DHT22;14820;48.682;8.890;2023-04-30T04:12:18;9.90;99.90
26224;DHT22;14820;48.682;8.890;2023-04-30T04:14:43;9.90;99.90
26224;DHT22;14820;48.682;8.890;2023-04-30T04:17:09;9.80;99.90
26224;DHT22;14820;48.682;8.890;2023-04-30T04:19:35;9.80;99.90
26224;DHT22;14820;48.682;8.890;2023-04-30T04:22:00;9.80;99.90
26224;DHT22;14820;48.682;8.890;2023-04-30T04:24:27;9.80;99.90
26224;DHT22;14820;48.682;8.890;2023-04-30T04:26:52;9.70;99.90
26224;DHT22;14820;48.682;8.890;2023-04-30T04:29:18;9.80;99.90
26224;DHT22;14820;48.682;8.890;2023-04-30T04:31:44;9.70;99.90
26224;DHT22;14820;48.682;8.890;2023-04-30T04:34:11;9.80;99.90
26224;DHT22;14820;48.682;8.890;2023-04-30T04:36:37;9.80;99.90
26224;DHT22;14820;48.682;8.890;2023-04-30T04:39:03;9.70;99.90
26224;DHT22;14820;48.682;8.890;2023-04-30T04:41:29;9.70;99.90
26224;DHT22;14820;48.682;8.890;2023-04-30T04:43:55;9.80;99.90
26224;DHT22;14820;48.682;8.890;2023-04-30T04:46:21;9.70;99.90
26224;DHT22;14820;48.682;8.890;2023-04-30T04:48:48;9.70;99.90
26224;DHT22;14820;48.682;8.890;2023-04-30T04:51:13;9.70;99.90
26224;DHT22;14820;48.682;8.890;2023-04-30T04:53:39;9.80;99.90
26224;DHT22;14820;48.682;8.890;2023-04-30T04:56:05;9.80;99.90
26224;DHT22;14820;48.682;8.890;2023-04-30T04:58:31;9.70;99.90
26224;DHT22;14820;48.682;8.890;2023-04-30T05:00:57;9.70;99.90
26224;DHT22;14820;48.682;8.890;2023-04-30T05:03:27;9.70;99.90
26224;DHT22;14820;48.682;8.890;2023-04-30T05:05:53;9.70;99.90
26224;DHT22;14820;48.682;8.890;2023-04-30T05:08:19;9.80;99.90
26224;DHT22;14820;48.682;8.890;2023-04-30T05:10:44;9.80;99.90
26224;DHT22;14820;48.682;8.890;2023-04-30T05:13:10;9.80;99.90
26224;DHT22;14820;48.682;8.890;2023-04-30T05:15:36;9.80;99.90
26224;DHT22;14820;48.682;8.890;2023-04-30T05:18:02;9.80;99.90
26224;DHT22;14820;48.682;8.890;2023-04-30T05:20:27;9.80;99.90
26224;DHT22;14820;48.682;8.890;2023-04-30T05:22:53;9.80;99.90
26224;DHT22;14820;48.682;8.890;2023-04-30T05:25:19;9.80;99.90
26224;DHT22;14820;48.682;8.890;2023-04-30T05:27:45;9.80;99.90
26224;DHT22;14820;48.682;8.890;2023-04-30T05:30:11;9.90;99.90
26224;DHT22;14820;48.682;8.890;2023-04-30T05:32:36;9.90;99.90
26224;DHT22;14820;48.682;8.890;2023-04-30T05:35:02;9.90;99.90
26224;DHT22;14820;48.682;8.890;2023-04-30T05:37:28;9.90;99.90
26224;DHT22;14820;48.682;8.890;2023-04-30T05:39:53;10.00;99.90
26224;DHT22;14820;48.682;8.890;2023-04-30T05:42:19;10.00;99.90
26224;DHT22;14820;48.682;8.890;2023-04-30T05:44:47;10.00;99.90
26224;DHT22;14820;48.682;8.890;2023-04-30T05:47:14;10.10;99.90
26224;DHT22;14820;48.682;8.890;2023-04-30T05:49:39;10.10;99.90
26224;DHT22;14820;48.682;8.890;2023-04-30T05:52:05;10.10;99.90
26224;DHT22;14820;48.682;8.890;2023-04-30T05:54:31;10.20;99.90
26224;DHT22;14820;48.682;8.890;2023-04-30T05:56:57;10.20;99.90
26224;DHT22;14820;48.682;8.890;2023-04-30T05:59:22;10.30;99.90
26224;DHT22;14820;48.682;8.890;2023-04-30T06:01:48;10.30;99.90
26224;DHT22;14820;48.682;8.890;2023-04-30T06:04:14;10.30;99.90
26224;DHT22;14820;48.682;8.890;2023-04-30T06:06:39;10.30;99.90
26224;DHT22;14820;48.682;8.890;2023-04-30T06:09:05;10.40;99.90
26224;DHT22;14820;48.682;8.890;2023-04-30T06:11:31;10.50;99.90
26224;DHT22;14820;48.682;8.890;2023-04-30T06:13:57;10.50;99.90
26224;DHT22;14820;48.682;8.890;2023-04-30T06:16:23;10.60;99.90
26224;DHT22;14820;48.682;8.890;2023-04-30T06:18:48;10.70;99.90
26224;DHT22;14820;48.682;8.890;2023-04-30T06:21:14;10.80;99.90
26224;DHT22;14820;48.682;8.890;2023-04-30T06:23:39;10.80;99.90
26224;DHT22;14820;48.682;8.890;2023-04-30T06:26:05;10.90;99.90
26224;DHT22;14820;48.682;8.890;2023-04-30T06:28:31;10.80;99.90
26224;DHT22;14820;48.682;8.890;2023-04-30T06:30:57;10.90;99.90
26224;DHT22;14820;48.682;8.890;2023-04-30T06:33:22;10.80;99.90
26224;DHT22;14820;48.682;8.890;2023-04-30T06:35:48;10.90;99.90
26224;DHT22;14820;48.682;8.890;2023-04-30T06:38:16;10.90;99.90
26224;DHT22;14820;48.682;8.890;2023-04-30T06:40:42;10.80;99.90
26224;DHT22;14820;48.682;8.890;2023-04-30T06:43:08;10.90;99.90
26224;DHT22;14820;48.682;8.890;2023-04-30T06:45:34;10.90;99.90
26224;DHT22;14820;48.682;8.890;2023-04-30T06:48:00;10.90;99.90
26224;DHT22;14820;48.682;8.890;2023-04-30T06:50:26;10.90;99.90
26224;DHT22;14820;48.682;8.890;2023-04-30T06:52:51;10.90;99.90
26224;DHT22;14820;48.682;8.890;2023-04-30T06:55:17;11.00;99.90
26224;DHT22;14820;48.682;8.890;2023-04-30T06:57:43;11.00;99.90
26224;DHT22;14820;48.682;8.890;2023-04-30T07:00:09;11.10;99.90
26224;DHT22;14820;48.682;8.890;2023-04-30T07:02:35;11.10;99.90
26224;DHT22;14820;48.682;8.890;2023-04-30T07:05:02;11.10;99.90
26224;DHT22;14820;48.682;8.890;2023-04-30T07:07:28;11.20;99.90
26224;DHT22;14820;48.682;8.890;2023-04-30T07:09:54;11.30;99.90
26224;DHT22;14820;48.682;8.890;2023-04-30T07:12:20;11.30;99.90
26224;DHT22;14820;48.682;8.890;2023-04-30T07:14:46;11.30;99.90
26224;DHT22;14820;48.682;8.890;2023-04-30T07:17:12;11.40;99.90
26224;DHT22;14820;48.682;8.890;2023-04-30T07:19:38;11.40;99.90
26224;DHT22;14820;48.682;8.890;2023-04-30T07:22:03;11.40;99.90
26224;DHT22;14820;48.682;8.890;2023-04-30T07:24:30;11.50;99.90
26224;DHT22;14820;48.682;8.890;2023-04-30T07:26:56;11.50;99.90
26224;DHT22;14820;48.682;8.890;2023-04-30T07:29:23;11.60;99.90
26224;DHT22;14820;48.682;8.890;2023-04-30T07:31:48;11.60;99.90
26224;DHT22;14820;48.682;8.890;2023-04-30T07:34:16;11.70;99.90
26224;DHT22;14820;48.682;8.890;2023-04-30T07:36:46;11.80;99.90
26224;DHT22;14820;48.682;8.890;2023-04-30T07:39:13;11.90;99.90
26224;DHT22;14820;48.682;8.890;2023-04-30T07:41:42;12.00;99.90
26224;DHT22;14820;48.682;8.890;2023-04-30T07:44:08;12.00;99.90
26224;DHT22;14820;48.682;8.890;2023-04-30T07:46:36;12.10;99.90
26224;DHT22;14820;48.682;8.890;2023-04-30T07:49:04;12.20;99.90
26224;DHT22;14820;48.682;8.890;2023-04-30T07:51:30;12.30;99.90
26224;DHT22;14820;48.682;8.890;2023-04-30T07:54:00;12.50;99.90
26224;DHT22;14820;48.682;8.890;2023-04-30T07:56:28;12.60;99.90
26224;DHT22;14820;48.682;8.890;2023-04-30T07:58:54;12.70;99.90
26224;DHT22;14820;48.682;8.890;2023-04-30T08:01:22;12.70;99.90
26224;DHT22;14820;48.682;8.890;2023-04-30T08:03:49;12.70;99.90
26224;DHT22;14820;48.682;8.890;2023-04-30T08:06:18;12.60;99.90
26224;DHT22;14820;48.682;8.890;2023-04-30T08:08:45;12.60;99.90
26224;DHT22;14820;48.682;8.890;2023-04-30T08:11:11;12.60;99.90
26224;DHT22;14820;48.682;8.890;2023-04-30T08:13:37;12.70;99.90
26224;DHT22;14820;48.682;8.890;2023-04-30T08:16:02;12.70;99.90
26224;DHT22;14820;48.682;8.890;2023-04-30T08:18:29;12.80;99.90
26224;DHT22;14820;48.682;8.890;2023-04-30T08:20:54;12.90;99.90
26224;DHT22;14820;48.682;8.890;2023-04-30T08:23:20;13.00;99.90
26224;DHT22;14820;48.682;8.890;2023-04-30T08:25:46;12.90;99.90
26224;DHT22;14820;48.682;8.890;2023-04-30T08:28:13;12.90;99.90
26224;DHT22;14820;48.682;8.890;2023-04-30T08:30:39;12.90;99.90
26224;DHT22;14820;48.682;8.890;2023-04-30T08:33:04;13.00;99.90
26224;DHT22;14820;48.682;8.890;2023-04-30T08:35:30;13.00;99.90
26224;DHT22;14820;48.682;8.890;2023-04-30T08:37:56;12.90;99.90
26224;DHT22;14820;48.682;8.890;2023-04-30T08:40:21;12.90;99.90
26224;DHT22;14820;48.682;8.890;2023-04-30T08:42:56;12.90;99.90
26224;DHT22;14820;48.682;8.890;2023-04-30T08:45:28;12.90;99.90
26224;DHT22;14820;48.682;8.890;2023-04-30T08:47:54;12.90;99.90
26224;DHT22;14820;48.682;8.890;2023-04-30T08:50:22;12.90;99.90
26224;DHT22;14820;48.682;8.890;2023-04-30T08:52:48;13.00;99.90
26224;DHT22;14820;48.682;8.890;2023-04-30T08:55:14;13.00;99.90
26224;DHT22;14820;48.682;8.890;2023-04-30T08:57:39;13.00;99.90
26224;DHT22;14820;48.682;8.890;2023-04-30T09:00:06;13.10;99.90
26224;DHT22;14820;48.682;8.890;2023-04-30T09:02:33;13.10;99.90
26224;DHT22;14820;48.682;8.890;2023-04-30T09:04:59;13.10;99.90
26224;DHT22;14820;48.682;8.890;2023-04-30T09:07:26;13.20;99.90
26224;DHT22;14820;48.682;8.890;2023-04-30T09:09:53;13.30;99.90
26224;DHT22;14820;48.682;8.890;2023-04-30T09:12:19;13.30;99.90
26224;DHT22;14820;48.682;8.890;2023-04-30T09:15:00;13.30;99.90
26224;DHT22;14820;48.682;8.890;2023-04-30T09:17:30;13.30;99.90
26224;DHT22;14820;48.682;8.890;2023-04-30T09:20:11;13.30;99.90
26224;DHT22;14820;48.682;8.890;2023-04-30T09:22:39;13.30;99.90
26224;DHT22;14820;48.682;8.890;2023-04-30T09:25:05;13.20;99.90
26224;DHT22;14820;48.682;8.890;2023-04-30T09:27:32;13.20;99.90
26224;DHT22;14820;48.682;8.890;2023-04-30T09:29:57;13.20;99.90
26224;DHT22;14820;48.682;8.890;2023-04-30T09:32:24;13.10;99.90
26224;DHT22;14820;48.682;8.890;2023-04-30T09:34:49;13.10;99.90
26224;DHT22;14820;48.682;8.890;2023-04-30T09:37:16;13.10;99.90
26224;DHT22;14820;48.682;8.890;2023-04-30T09:39:46;13.10;99.90
26224;DHT22;14820;48.682;8.890;2023-04-30T09:42:13;13.10;99.90
26224;DHT22;14820;48.682;8.890;2023-04-30T09:44:40;13.10;99.90
26224;DHT22;14820;48.682;8.890;2023-04-30T09:47:17;13.10;99.90
26224;DHT22;14820;48.682;8.890;2023-04-30T09:49:47;13.10;99.90
26224;DHT22;14820;48.682;8.890;2023-04-30T09:52:14;13.20;99.90
26224;DHT22;14820;48.682;8.890;2023-04-30T09:54:40;13.20;99.90
26224;DHT22;14820;48.682;8.890;2023-04-30T09:57:10;13.30;99.90
26224;DHT22;14820;48.682;8.890;2023-04-30T09:59:43;13.30;99.90
26224;DHT22;14820;48.682;8.890;2023-04-30T10:02:13;13.30;99.90
26224;DHT22;14820;48.682;8.890;2023-04-30T10:04:42;13.40;99.90
26224;DHT22;14820;48.682;8.890;2023-04-30T10:07:19;13.40;99.90
26224;DHT22;14820;48.682;8.890;2023-04-30T10:09:50;13.40;99.90
26224;DHT22;14820;48.682;8.890;2023-04-30T10:12:25;13.50;99.90
26224;DHT22;14820;48.682;8.890;2023-04-30T10:14:56;13.50;99.90
26224;DHT22;14820;48.682;8.890;2023-04-30T10:17:26;13.60;99.90
26224;DHT22;14820;48.682;8.890;2023-04-30T10:19:56;13.60;99.90
26224;DHT22;14820;48.682;8.890;2023-04-30T10:22:22;13.60;99.90
26224;DHT22;14820;48.682;8.890;2023-04-30T10:24:48;13.60;99.90
26224;DHT22;14820;48.682;8.890;2023-04-30T10:27:14;13.60;99.90
26224;DHT22;14820;48.682;8.890;2023-04-30T10:29:40;13.70;99.90
26224;DHT22;14820;48.682;8.890;2023-04-30T10:32:06;13.70;99.90
26224;DHT22;14820;48.682;8.890;2023-04-30T10:34:56;13.70;99.90
26224;DHT22;14820;48.682;8.890;2023-04-30T10:37:30;13.80;99.90
26224;DHT22;14820;48.682;8.890;2023-04-30T10:39:59;13.80;99.90
26224;DHT22;14820;48.682;8.890;2023-04-30T10:42:26;13.90;99.90
26224;DHT22;14820;48.682;8.890;2023-04-30T10:44:52;14.00;99.90
26224;DHT22;14820;48.682;8.890;2023-04-30T10:47:18;14.00;99.90
26224;DHT22;14820;48.682;8.890;2023-04-30T10:49:48;14.10;99.90
26224;DHT22;14820;48.682;8.890;2023-04-30T10:52:25;14.10;99.90
26224;DHT22;14820;48.682;8.890;2023-04-30T10:54:51;14.20;99.90
26224;DHT22;14820;48.682;8.890;2023-04-30T10:57:17;14.20;99.90
26224;DHT22;14820;48.682;8.890;2023-04-30T11:02:39;14.30;99.90
26224;DHT22;14820;48.682;8.890;2023-04-30T11:05:08;14.30;99.90
26224;DHT22;14820;48.682;8.890;2023-04-30T11:07:36;14.40;99.90
26224;DHT22;14820;48.682;8.890;2023-04-30T11:10:02;14.40;99.90
26224;DHT22;14820;48.682;8.890;2023-04-30T11:12:28;14.40;99.90
26224;DHT22;14820;48.682;8.890;2023-04-30T11:15:05;14.40;99.90
26224;DHT22;14820;48.682;8.890;2023-04-30T11:17:32;14.50;99.90
26224;DHT22;14820;48.682;8.890;2023-04-30T11:20:01;14.50;99.90
26224;DHT22;14820;48.682;8.890;2023-04-30T11:22:27;14.50;99.90
26224;DHT22;14820;48.682;8.890;2023-04-30T11:25:05;14.40;99.90
26224;DHT22;14820;48.682;8.890;2023-04-30T11:27:32;14.40;99.90
26224;DHT22;14820;48.682;8.890;2023-04-30T11:30:08;14.50;99.90
26224;DHT22;14820;48.682;8.890;2023-04-30T11:32:36;14.50;99.90
26224;DHT22;14820;48.682;8.890;2023-04-30T11:35:03;14.50;99.90
26224;DHT22;14820;48.682;8.890;2023-04-30T11:37:38;14.50;99.90
26224;DHT22;14820;48.682;8.890;2023-04-30T11:40:09;14.50;99.90
26224;DHT22;14820;48.682;8.890;2023-04-30T11:42:36;14.50;99.90
26224;DHT22;14820;48.682;8.890;2023-04-30T11:45:10;14.50;99.90
26224;DHT22;14820;48.682;8.890;2023-04-30T11:47:40;14.50;99.90
26224;DHT22;14820;48.682;8.890;2023-04-30T11:50:13;14.50;99.90
26224;DHT22;14820;48.682;8.890;2023-04-30T11:52:40;14.50;99.90
26224;DHT22;14820;48.682;8.890;2023-04-30T11:55:11;14.50;99.90
26224;DHT22;14820;48.682;8.890;2023-04-30T11:57:42;14.60;99.90
26224;DHT22;14820;48.682;8.890;2023-04-30T12:00:14;14.60;99.90
26224;DHT22;14820;48.682;8.890;2023-04-30T12:02:42;14.60;99.90
26224;DHT22;14820;48.682;8.890;2023-04-30T12:05:21;14.60;99.90
26224;DHT22;14820;48.682;8.890;2023-04-30T12:07:49;14.70;99.90
26224;DHT22;14820;48.682;8.890;2023-04-30T12:10:15;14.70;99.90
26224;DHT22;14820;48.682;8.890;2023-04-30T12:12:42;14.70;99.90
26224;DHT22;14820;48.682;8.890;2023-04-30T12:15:16;14.70;99.90
26224;DHT22;14820;48.682;8.890;2023-04-30T12:17:42;14.80;99.90
26224;DHT22;14820;48.682;8.890;2023-04-30T12:20:10;14.80;99.90
26224;DHT22;14820;48.682;8.890;2023-04-30T12:22:36;14.80;99.90
26224;DHT22;14820;48.682;8.890;2023-04-30T12:25:06;14.80;99.90
26224;DHT22;14820;48.682;8.890;2023-04-30T12:27:33;14.80;99.90
26224;DHT22;14820;48.682;8.890;2023-04-30T12:30:06;14.90;99.90
26224;DHT22;14820;48.682;8.890;2023-04-30T12:32:43;14.90;99.90
26224;DHT22;14820;48.682;8.890;2023-04-30T12:35:17;15.00;99.90
26224;DHT22;14820;48.682;8.890;2023-04-30T12:37:45;15.00;99.90
26224;DHT22;14820;48.682;8.890;2023-04-30T12:40:14;15.10;99.90
26224;DHT22;14820;48.682;8.890;2023-04-30T12:42:44;15.10;99.90
26224;DHT22;14820;48.682;8.890;2023-04-30T12:45:12;15.10;99.90
26224;DHT22;14820;48.682;8.890;2023-04-30T12:47:39;15.10;99.90
26224;DHT22;14820;48.682;8.890;2023-04-30T12:50:11;15.10;99.90
26224;DHT22;14820;48.682;8.890;2023-04-30T12:52:38;15.20;99.90
26224;DHT22;14820;48.682;8.890;2023-04-30T12:55:23;15.30;99.90
26224;DHT22;14820;48.682;8.890;2023-04-30T12:58:08;15.30;99.90
26224;DHT22;14820;48.682;8.890;2023-04-30T13:03:11;15.30;99.90
26224;DHT22;14820;48.682;8.890;2023-04-30T13:05:38;15.50;99.90
26224;DHT22;14820;48.682;8.890;2023-04-30T13:08:03;15.50;99.90
26224;DHT22;14820;48.682;8.890;2023-04-30T13:10:33;15.50;99.90
26224;DHT22;14820;48.682;8.890;2023-04-30T13:12:59;15.40;99.90
26224;DHT22;14820;48.682;8.890;2023-04-30T13:15:25;15.50;99.90
26224;DHT22;14820;48.682;8.890;2023-04-30T13:17:52;15.50;99.90
26224;DHT22;14820;48.682;8.890;2023-04-30T13:20:21;15.60;99.90
26224;DHT22;14820;48.682;8.890;2023-04-30T13:22:53;15.60;99.90
26224;DHT22;14820;48.682;8.890;2023-04-30T13:25:19;15.70;99.90
26224;DHT22;14820;48.682;8.890;2023-04-30T13:27:44;15.70;99.90
26224;DHT22;14820;48.682;8.890;2023-04-30T13:30:10;15.90;99.90
26224;DHT22;14820;48.682;8.890;2023-04-30T13:32:36;16.00;99.90
26224;DHT22;14820;48.682;8.890;2023-04-30T13:35:02;16.00;99.90
26224;DHT22;14820;48.682;8.890;2023-04-30T13:37:28;15.90;99.90
26224;DHT22;14820;48.682;8.890;2023-04-30T13:39:56;15.90;99.90
26224;DHT22;14820;48.682;8.890;2023-04-30T13:42:24;15.90;99.90
26224;DHT22;14820;48.682;8.890;2023-04-30T13:44:51;15.80;99.90
26224;DHT22;14820;48.682;8.890;2023-04-30T13:47:17;15.80;99.90
26224;DHT22;14820;48.682;8.890;2023-04-30T13:49:43;15.80;99.90
26224;DHT22;14820;48.682;8.890;2023-04-30T13:52:08;15.70;99.90
26224;DHT22;14820;48.682;8.890;2023-04-30T13:54:34;15.60;99.90
26224;DHT22;14820;48.682;8.890;2023-04-30T13:57:01;15.60;99.90
26224;DHT22;14820;48.682;8.890;2023-04-30T13:59:27;15.60;99.90
26224;DHT22;14820;48.682;8.890;2023-04-30T14:01:53;15.50;99.90
26224;DHT22;14820;48.682;8.890;2023-04-30T14:04:19;15.50;99.90
26224;DHT22;14820;48.682;8.890;2023-04-30T14:06:45;15.50;99.90
26224;DHT22;14820;48.682;8.890;2023-04-30T14:09:12;15.50;99.90
26224;DHT22;14820;48.682;8.890;2023-04-30T14:11:37;15.60;99.90
26224;DHT22;14820;48.682;8.890;2023-04-30T14:14:07;15.60;99.90
26224;DHT22;14820;48.682;8.890;2023-04-30T14:16:33;15.70;99.90
26224;DHT22;14820;48.682;8.890;2023-04-30T14:19:00;15.70;99.90
26224;DHT22;14820;48.682;8.890;2023-04-30T14:21:26;15.80;99.90
26224;DHT22;14820;48.682;8.890;2023-04-30T14:23:54;15.80;99.90
26224;DHT22;14820;48.682;8.890;2023-04-30T14:26:20;15.90;99.90
26224;DHT22;14820;48.682;8.890;2023-04-30T14:28:46;15.90;99.90
26224;DHT22;14820;48.682;8.890;2023-04-30T14:31:12;15.90;99.90
26224;DHT22;14820;48.682;8.890;2023-04-30T14:33:38;15.90;99.90
26224;DHT22;14820;48.682;8.890;2023-04-30T14:36:04;15.90;99.90
26224;DHT22;14820;48.682;8.890;2023-04-30T14:38:30;15.90;99.90
26224;DHT22;14820;48.682;8.890;2023-04-30T14:40:56;16.00;99.90
26224;DHT22;14820;48.682;8.890;2023-04-30T14:43:21;16.00;99.90
26224;DHT22;14820;48.682;8.890;2023-04-30T14:45:48;16.00;99.90
26224;DHT22;14820;48.682;8.890;2023-04-30T14:48:20;16.10;99.90
26224;DHT22;14820;48.682;8.890;2023-04-30T14:50:45;16.00;99.90
26224;DHT22;14820;48.682;8.890;2023-04-30T14:53:11;16.00;99.90
26224;DHT22;14820;48.682;8.890;2023-04-30T14:55:40;16.10;99.90
26224;DHT22;14820;48.682;8.890;2023-04-30T14:58:11;16.10;99.90
26224;DHT22;14820;48.682;8.890;2023-04-30T15:00:38;16.10;99.90
26224;DHT22;14820;48.682;8.890;2023-04-30T15:03:03;16.10;99.90
26224;DHT22;14820;48.682;8.890;2023-04-30T15:05:31;16.10;99.90
26224;DHT22;14820;48.682;8.890;2023-04-30T15:07:57;16.00;99.90
26224;DHT22;14820;48.682;8.890;2023-04-30T15:10:22;15.90;99.90
26224;DHT22;14820;48.682;8.890;2023-04-30T15:12:48;15.90;99.90
26224;DHT22;14820;48.682;8.890;2023-04-30T15:15:14;15.90;99.90
26224;DHT22;14820;48.682;8.890;2023-04-30T15:17:45;15.90;99.90
26224;DHT22;14820;48.682;8.890;2023-04-30T15:20:11;15.90;99.90
26224;DHT22;14820;48.682;8.890;2023-04-30T15:22:37;15.90;99.90
26224;DHT22;14820;48.682;8.890;2023-04-30T15:25:03;16.00;99.90
26224;DHT22;14820;48.682;8.890;2023-04-30T15:27:29;16.00;99.90
26224;DHT22;14820;48.682;8.890;2023-04-30T15:29:55;16.00;99.90
26224;DHT22;14820;48.682;8.890;2023-04-30T15:32:21;16.10;99.90
26224;DHT22;14820;48.682;8.890;2023-04-30T15:34:47;16.10;99.90
26224;DHT22;14820;48.682;8.890;2023-04-30T15:37:13;16.10;99.90
26224;DHT22;14820;48.682;8.890;2023-04-30T15:39:38;16.10;99.90
26224;DHT22;14820;48.682;8.890;2023-04-30T15:42:04;16.00;99.90
26224;DHT22;14820;48.682;8.890;2023-04-30T15:44:30;16.00;99.90
26224;DHT22;14820;48.682;8.890;2023-04-30T15:46:55;16.00;99.90
26224;DHT22;14820;48.682;8.890;2023-04-30T15:49:21;16.00;99.90
26224;DHT22;14820;48.682;8.890;2023-04-30T15:51:49;16.00;99.90
26224;DHT22;14820;48.682;8.890;2023-04-30T15:54:15;16.00;99.90